sensor_id;sensor_type;location;lat;lon;timestamp;P1;durP1;ratioP1;P2;durP2;ratioP2
1390;SDS011;690;51.454;7.194;2024-01-30T00:01:52;9.90;;;7.20;;
1390;SDS011;690;51.454;7.194;2024-01-30T00:04:21;10.20;;;7.33;;
1390;SDS011;690;51.454;7.194;2024-01-30T00:06:48;8.27;;;7.27;;
1390;SDS011;690;51.454;7.194;2024-01-30T00:09:15;8.43;;;7.43;;
1390;SDS011;690;51.454;7.194;2024-01-30T00:11:42;11.00;;;7.87;;
1390;SDS011;690;51.454;7.194;2024-01-30T00:14:08;8.47;;;7.53;;
1390;SDS011;690;51.454;7.194;2024-01-30T00:16:35;11.23;;;8.13;;
1390;SDS011;690;51.454;7.194;2024-01-30T00:19:02;8.17;;;7.27;;
1390;SDS011;690;51.454;7.194;2024-01-30T00:21:31;9.50;;;7.47;;
1390;SDS011;690;51.454;7.194;2024-01-30T00:23:58;13.77;;;8.63;;
1390;SDS011;690;51.454;7.194;2024-01-30T00:26:24;10.80;;;7.47;;
1390;SDS011;690;51.454;7.194;2024-01-30T00:28:51;9.23;;;7.50;;
1390;SDS011;690;51.454;7.194;2024-01-30T00:31:18;11.67;;;7.77;;
1390;SDS011;690;51.454;7.194;2024-01-30T00:33:45;10.67;;;7.40;;
1390;SDS011;690;51.454;7.194;2024-01-30T00:36:12;10.60;;;8.07;;
1390;SDS011;690;51.454;7.194;2024-01-30T00:38:40;12.23;;;7.90;;
1390;SDS011;690;51.454;7.194;2024-01-30T00:41:10;8.80;;;6.90;;
1390;SDS011;690;51.454;7.194;2024-01-30T00:43:37;11.27;;;8.40;;
1390;SDS011;690;51.454;7.194;2024-01-30T00:46:04;8.50;;;7.00;;
1390;SDS011;690;51.454;7.194;2024-01-30T00:48:31;9.73;;;6.70;;
1390;SDS011;690;51.454;7.194;2024-01-30T00:50:58;13.73;;;8.10;;
1390;SDS011;690;51.454;7.194;2024-01-30T00:53:26;10.27;;;7.80;;
1390;SDS011;690;51.454;7.194;2024-01-30T00:55:54;9.10;;;7.33;;
1390;SDS011;690;51.454;7.194;2024-01-30T00:58:21;10.20;;;7.63;;
1390;SDS011;690;51.454;7.194;2024-01-30T01:00:48;9.93;;;8.03;;
1390;SDS011;690;51.454;7.194;2024-01-30T01:03:15;11.87;;;7.30;;
1390;SDS011;690;51.454;7.194;2024-01-30T01:05:42;8.40;;;7.33;;
1390;SDS011;690;51.454;7.194;2024-01-30T01:08:09;9.80;;;7.90;;
1390;SDS011;690;51.454;7.194;2024-01-30T01:10:36;9.27;;;7.13;;
1390;SDS011;690;51.454;7.194;2024-01-30T01:13:04;9.93;;;8.40;;
1390;SDS011;690;51.454;7.194;2024-01-30T01:15:31;9.57;;;8.17;;
1390;SDS011;690;51.454;7.194;2024-01-30T01:17:58;14.00;;;8.17;;
1390;SDS011;690;51.454;7.194;2024-01-30T01:20:25;10.67;;;8.40;;
1390;SDS011;690;51.454;7.194;2024-01-30T01:22:52;12.27;;;7.80;;
1390;SDS011;690;51.454;7.194;2024-01-30T01:25:19;11.87;;;8.30;;
1390;SDS011;690;51.454;7.194;2024-01-30T01:27:46;10.50;;;8.30;;
1390;SDS011;690;51.454;7.194;2024-01-30T01:30:18;10.60;;;7.77;;
1390;SDS011;690;51.454;7.194;2024-01-30T01:32:47;10.17;;;8.07;;
1390;SDS011;690;51.454;7.194;2024-01-30T01:35:20;15.60;;;9.10;;
1390;SDS011;690;51.454;7.194;2024-01-30T01:37:47;8.90;;;6.60;;
1390;SDS011;690;51.454;7.194;2024-01-30T01:40:19;10.30;;;8.10;;
1390;SDS011;690;51.454;7.194;2024-01-30T01:42:49;12.03;;;7.83;;
1390;SDS011;690;51.454;7.194;2024-01-30T01:45:17;11.53;;;7.87;;
1390;SDS011;690;51.454;7.194;2024-01-30T01:47:45;8.93;;;7.13;;
1390;SDS011;690;51.454;7.194;2024-01-30T01:50:15;10.10;;;7.27;;
1390;SDS011;690;51.454;7.194;2024-01-30T01:52:43;15.63;;;8.40;;
1390;SDS011;690;51.454;7.194;2024-01-30T01:55:11;11.97;;;8.30;;
1390;SDS011;690;51.454;7.194;2024-01-30T01:57:38;9.77;;;7.57;;
1390;SDS011;690;51.454;7.194;2024-01-30T02:00:06;9.63;;;7.60;;
1390;SDS011;690;51.454;7.194;2024-01-30T02:02:36;15.17;;;8.50;;
1390;SDS011;690;51.454;7.194;2024-01-30T02:05:05;9.50;;;7.90;;
1390;SDS011;690;51.454;7.194;2024-01-30T02:07:33;13.30;;;7.43;;
1390;SDS011;690;51.454;7.194;2024-01-30T02:10:00;10.10;;;7.63;;
1390;SDS011;690;51.454;7.194;2024-01-30T02:12:26;10.87;;;7.73;;
1390;SDS011;690;51.454;7.194;2024-01-30T02:14:53;9.73;;;7.00;;
1390;SDS011;690;51.454;7.194;2024-01-30T02:17:20;11.10;;;7.40;;
1390;SDS011;690;51.454;7.194;2024-01-30T02:19:49;13.80;;;8.10;;
1390;SDS011;690;51.454;7.194;2024-01-30T02:22:18;9.83;;;7.23;;
1390;SDS011;690;51.454;7.194;2024-01-30T02:24:46;10.87;;;6.93;;
1390;SDS011;690;51.454;7.194;2024-01-30T02:27:13;9.33;;;7.40;;
1390;SDS011;690;51.454;7.194;2024-01-30T02:29:40;11.50;;;7.30;;
1390;SDS011;690;51.454;7.194;2024-01-30T02:32:07;8.60;;;7.53;;
1390;SDS011;690;51.454;7.194;2024-01-30T02:34:34;12.80;;;8.33;;
1390;SDS011;690;51.454;7.194;2024-01-30T02:37:02;9.77;;;7.13;;
1390;SDS011;690;51.454;7.194;2024-01-30T02:39:30;11.10;;;7.70;;
1390;SDS011;690;51.454;7.194;2024-01-30T02:41:57;9.17;;;7.93;;
1390;SDS011;690;51.454;7.194;2024-01-30T02:44:24;12.23;;;8.57;;
1390;SDS011;690;51.454;7.194;2024-01-30T02:46:51;11.30;;;7.10;;
1390;SDS011;690;51.454;7.194;2024-01-30T02:49:19;10.27;;;6.97;;
1390;SDS011;690;51.454;7.194;2024-01-30T02:51:46;10.63;;;7.80;;
1390;SDS011;690;51.454;7.194;2024-01-30T02:54:13;8.73;;;7.83;;
1390;SDS011;690;51.454;7.194;2024-01-30T02:56:41;9.67;;;7.17;;
1390;SDS011;690;51.454;7.194;2024-01-30T02:59:08;10.20;;;7.03;;
1390;SDS011;690;51.454;7.194;2024-01-30T03:01:42;12.10;;;7.77;;
1390;SDS011;690;51.454;7.194;2024-01-30T03:04:09;9.50;;;6.80;;
1390;SDS011;690;51.454;7.194;2024-01-30T03:06:36;8.90;;;7.43;;
1390;SDS011;690;51.454;7.194;2024-01-30T03:09:03;12.40;;;6.03;;
1390;SDS011;690;51.454;7.194;2024-01-30T03:11:30;9.90;;;7.40;;
1390;SDS011;690;51.454;7.194;2024-01-30T03:13:57;12.80;;;7.03;;
1390;SDS011;690;51.454;7.194;2024-01-30T03:16:24;12.23;;;7.20;;
1390;SDS011;690;51.454;7.194;2024-01-30T03:18:51;12.00;;;7.97;;
1390;SDS011;690;51.454;7.194;2024-01-30T03:21:18;10.07;;;7.80;;
1390;SDS011;690;51.454;7.194;2024-01-30T03:23:45;8.10;;;6.50;;
1390;SDS011;690;51.454;7.194;2024-01-30T03:26:12;10.07;;;6.90;;
1390;SDS011;690;51.454;7.194;2024-01-30T03:28:40;11.77;;;8.00;;
1390;SDS011;690;51.454;7.194;2024-01-30T03:31:08;8.13;;;6.73;;
1390;SDS011;690;51.454;7.194;2024-01-30T03:33:36;9.67;;;5.83;;
1390;SDS011;690;51.454;7.194;2024-01-30T03:36:04;8.60;;;6.70;;
1390;SDS011;690;51.454;7.194;2024-01-30T03:38:32;10.40;;;7.00;;
1390;SDS011;690;51.454;7.194;2024-01-30T03:40:58;8.13;;;6.83;;
1390;SDS011;690;51.454;7.194;2024-01-30T03:43:26;10.93;;;7.40;;
1390;SDS011;690;51.454;7.194;2024-01-30T03:45:53;10.93;;;7.00;;
1390;SDS011;690;51.454;7.194;2024-01-30T03:48:21;7.83;;;6.37;;
1390;SDS011;690;51.454;7.194;2024-01-30T03:50:48;8.00;;;6.70;;
1390;SDS011;690;51.454;7.194;2024-01-30T03:53:15;7.47;;;5.90;;
1390;SDS011;690;51.454;7.194;2024-01-30T03:55:42;8.80;;;6.37;;
1390;SDS011;690;51.454;7.194;2024-01-30T03:58:08;9.33;;;6.00;;
1390;SDS011;690;51.454;7.194;2024-01-30T04:00:35;9.70;;;5.50;;
1390;SDS011;690;51.454;7.194;2024-01-30T04:03:02;9.83;;;6.47;;
1390;SDS011;690;51.454;7.194;2024-01-30T04:05:31;8.63;;;6.37;;
1390;SDS011;690;51.454;7.194;2024-01-30T04:07:58;11.30;;;6.57;;
1390;SDS011;690;51.454;7.194;2024-01-30T04:10:25;9.10;;;6.60;;
1390;SDS011;690;51.454;7.194;2024-01-30T04:12:52;8.93;;;6.73;;
1390;SDS011;690;51.454;7.194;2024-01-30T04:15:19;8.33;;;5.90;;
1390;SDS011;690;51.454;7.194;2024-01-30T04:17:46;9.07;;;6.50;;
1390;SDS011;690;51.454;7.194;2024-01-30T04:20:14;9.63;;;6.90;;
1390;SDS011;690;51.454;7.194;2024-01-30T04:22:43;8.10;;;6.40;;
1390;SDS011;690;51.454;7.194;2024-01-30T04:25:10;8.97;;;6.60;;
1390;SDS011;690;51.454;7.194;2024-01-30T04:27:37;8.33;;;5.63;;
1390;SDS011;690;51.454;7.194;2024-01-30T04:30:04;13.53;;;6.60;;
1390;SDS011;690;51.454;7.194;2024-01-30T04:32:32;11.60;;;6.43;;
1390;SDS011;690;51.454;7.194;2024-01-30T04:34:59;11.60;;;6.70;;
1390;SDS011;690;51.454;7.194;2024-01-30T04:37:26;7.90;;;5.87;;
1390;SDS011;690;51.454;7.194;2024-01-30T04:39:54;7.70;;;6.70;;
1390;SDS011;690;51.454;7.194;2024-01-30T04:42:21;9.70;;;6.20;;
1390;SDS011;690;51.454;7.194;2024-01-30T04:44:48;7.47;;;6.00;;
1390;SDS011;690;51.454;7.194;2024-01-30T04:47:15;9.23;;;5.93;;
1390;SDS011;690;51.454;7.194;2024-01-30T04:49:42;9.30;;;6.57;;
1390;SDS011;690;51.454;7.194;2024-01-30T04:52:09;7.17;;;6.00;;
1390;SDS011;690;51.454;7.194;2024-01-30T04:54:36;7.93;;;5.43;;
1390;SDS011;690;51.454;7.194;2024-01-30T04:57:05;11.00;;;6.57;;
1390;SDS011;690;51.454;7.194;2024-01-30T04:59:34;9.07;;;6.10;;
1390;SDS011;690;51.454;7.194;2024-01-30T05:02:01;7.10;;;5.83;;
1390;SDS011;690;51.454;7.194;2024-01-30T05:04:28;7.60;;;6.03;;
1390;SDS011;690;51.454;7.194;2024-01-30T05:06:55;12.10;;;5.90;;
1390;SDS011;690;51.454;7.194;2024-01-30T05:09:22;8.20;;;6.00;;
1390;SDS011;690;51.454;7.194;2024-01-30T05:11:49;5.97;;;5.33;;
1390;SDS011;690;51.454;7.194;2024-01-30T05:14:18;8.27;;;6.80;;
1390;SDS011;690;51.454;7.194;2024-01-30T05:16:45;7.80;;;5.83;;
1390;SDS011;690;51.454;7.194;2024-01-30T05:19:12;7.97;;;6.20;;
1390;SDS011;690;51.454;7.194;2024-01-30T05:21:40;8.70;;;5.27;;
1390;SDS011;690;51.454;7.194;2024-01-30T05:24:07;9.10;;;6.10;;
1390;SDS011;690;51.454;7.194;2024-01-30T05:26:35;8.07;;;6.40;;
1390;SDS011;690;51.454;7.194;2024-01-30T05:29:02;11.03;;;6.50;;
1390;SDS011;690;51.454;7.194;2024-01-30T05:31:31;7.07;;;5.90;;
1390;SDS011;690;51.454;7.194;2024-01-30T05:33:58;9.77;;;5.37;;
1390;SDS011;690;51.454;7.194;2024-01-30T05:36:25;8.10;;;5.90;;
1390;SDS011;690;51.454;7.194;2024-01-30T05:38:52;8.27;;;6.63;;
1390;SDS011;690;51.454;7.194;2024-01-30T05:41:19;9.13;;;6.30;;
1390;SDS011;690;51.454;7.194;2024-01-30T05:43:46;8.50;;;6.37;;
1390;SDS011;690;51.454;7.194;2024-01-30T05:46:13;9.57;;;6.40;;
1390;SDS011;690;51.454;7.194;2024-01-30T05:48:41;9.20;;;6.17;;
1390;SDS011;690;51.454;7.194;2024-01-30T05:51:08;9.33;;;6.20;;
1390;SDS011;690;51.454;7.194;2024-01-30T05:53:35;8.17;;;6.20;;
1390;SDS011;690;51.454;7.194;2024-01-30T05:56:02;10.23;;;6.53;;
1390;SDS011;690;51.454;7.194;2024-01-30T05:58:29;10.90;;;6.50;;
1390;SDS011;690;51.454;7.194;2024-01-30T06:00:57;8.07;;;5.93;;
1390;SDS011;690;51.454;7.194;2024-01-30T06:03:24;13.03;;;6.20;;
1390;SDS011;690;51.454;7.194;2024-01-30T06:05:52;9.00;;;5.73;;
1390;SDS011;690;51.454;7.194;2024-01-30T06:08:19;7.40;;;6.47;;
1390;SDS011;690;51.454;7.194;2024-01-30T06:10:46;11.20;;;6.37;;
1390;SDS011;690;51.454;7.194;2024-01-30T06:13:14;8.70;;;5.70;;
1390;SDS011;690;51.454;7.194;2024-01-30T06:15:41;9.70;;;6.33;;
1390;SDS011;690;51.454;7.194;2024-01-30T06:18:08;7.60;;;5.90;;
1390;SDS011;690;51.454;7.194;2024-01-30T06:20:35;9.10;;;6.10;;
1390;SDS011;690;51.454;7.194;2024-01-30T06:23:03;8.13;;;5.83;;
1390;SDS011;690;51.454;7.194;2024-01-30T06:25:30;13.80;;;7.20;;
1390;SDS011;690;51.454;7.194;2024-01-30T06:27:57;8.17;;;6.27;;
1390;SDS011;690;51.454;7.194;2024-01-30T06:30:24;9.30;;;6.30;;
1390;SDS011;690;51.454;7.194;2024-01-30T06:32:51;12.17;;;6.40;;
1390;SDS011;690;51.454;7.194;2024-01-30T06:35:18;11.07;;;6.20;;
1390;SDS011;690;51.454;7.194;2024-01-30T06:37:45;9.37;;;6.90;;
1390;SDS011;690;51.454;7.194;2024-01-30T06:40:13;13.13;;;6.30;;
1390;SDS011;690;51.454;7.194;2024-01-30T06:42:40;8.37;;;5.80;;
1390;SDS011;690;51.454;7.194;2024-01-30T06:45:07;10.23;;;6.80;;
1390;SDS011;690;51.454;7.194;2024-01-30T06:47:35;8.70;;;6.70;;
1390;SDS011;690;51.454;7.194;2024-01-30T06:50:02;6.93;;;5.77;;
1390;SDS011;690;51.454;7.194;2024-01-30T06:52:29;11.40;;;6.20;;
1390;SDS011;690;51.454;7.194;2024-01-30T06:54:56;8.60;;;6.13;;
1390;SDS011;690;51.454;7.194;2024-01-30T06:57:24;11.57;;;6.10;;
1390;SDS011;690;51.454;7.194;2024-01-30T06:59:53;7.00;;;5.33;;
1390;SDS011;690;51.454;7.194;2024-01-30T07:02:22;7.80;;;6.50;;
1390;SDS011;690;51.454;7.194;2024-01-30T07:04:49;7.93;;;5.87;;
1390;SDS011;690;51.454;7.194;2024-01-30T07:07:16;7.60;;;6.37;;
1390;SDS011;690;51.454;7.194;2024-01-30T07:09:43;10.37;;;6.30;;
1390;SDS011;690;51.454;7.194;2024-01-30T07:12:10;8.40;;;5.87;;
1390;SDS011;690;51.454;7.194;2024-01-30T07:14:38;10.47;;;6.10;;
1390;SDS011;690;51.454;7.194;2024-01-30T07:17:05;9.97;;;6.43;;
1390;SDS011;690;51.454;7.194;2024-01-30T07:19:32;9.83;;;6.80;;
1390;SDS011;690;51.454;7.194;2024-01-30T07:22:00;6.30;;;5.70;;
1390;SDS011;690;51.454;7.194;2024-01-30T07:24:27;13.87;;;6.97;;
1390;SDS011;690;51.454;7.194;2024-01-30T07:26:54;10.70;;;6.63;;
1390;SDS011;690;51.454;7.194;2024-01-30T07:29:21;9.23;;;6.57;;
1390;SDS011;690;51.454;7.194;2024-01-30T07:31:49;9.47;;;6.73;;
1390;SDS011;690;51.454;7.194;2024-01-30T07:34:16;9.63;;;6.37;;
1390;SDS011;690;51.454;7.194;2024-01-30T07:36:43;9.70;;;7.03;;
1390;SDS011;690;51.454;7.194;2024-01-30T07:39:11;12.17;;;7.60;;
1390;SDS011;690;51.454;7.194;2024-01-30T07:41:38;9.30;;;6.20;;
1390;SDS011;690;51.454;7.194;2024-01-30T07:44:05;9.83;;;7.23;;
1390;SDS011;690;51.454;7.194;2024-01-30T07:46:32;8.30;;;6.37;;
1390;SDS011;690;51.454;7.194;2024-01-30T07:49:00;7.70;;;5.97;;
1390;SDS011;690;51.454;7.194;2024-01-30T07:51:27;8.80;;;5.87;;
1390;SDS011;690;51.454;7.194;2024-01-30T07:53:56;6.90;;;5.50;;
1390;SDS011;690;51.454;7.194;2024-01-30T07:56:23;13.63;;;6.97;;
1390;SDS011;690;51.454;7.194;2024-01-30T07:58:50;9.43;;;6.80;;
1390;SDS011;690;51.454;7.194;2024-01-30T08:01:18;9.30;;;6.53;;
1390;SDS011;690;51.454;7.194;2024-01-30T08:03:45;11.60;;;6.03;;
1390;SDS011;690;51.454;7.194;2024-01-30T08:06:13;7.37;;;6.27;;
1390;SDS011;690;51.454;7.194;2024-01-30T08:08:40;10.07;;;6.17;;
1390;SDS011;690;51.454;7.194;2024-01-30T08:11:07;10.70;;;5.43;;
1390;SDS011;690;51.454;7.194;2024-01-30T08:13:34;8.43;;;6.10;;
1390;SDS011;690;51.454;7.194;2024-01-30T08:16:01;10.40;;;7.20;;
1390;SDS011;690;51.454;7.194;2024-01-30T08:18:28;12.67;;;7.37;;
1390;SDS011;690;51.454;7.194;2024-01-30T08:20:55;10.17;;;5.50;;
1390;SDS011;690;51.454;7.194;2024-01-30T08:23:23;7.53;;;5.83;;
1390;SDS011;690;51.454;7.194;2024-01-30T08:25:50;8.10;;;5.90;;
1390;SDS011;690;51.454;7.194;2024-01-30T08:28:17;9.87;;;5.90;;
1390;SDS011;690;51.454;7.194;2024-01-30T08:30:44;15.50;;;6.10;;
1390;SDS011;690;51.454;7.194;2024-01-30T08:33:10;7.40;;;5.67;;
1390;SDS011;690;51.454;7.194;2024-01-30T08:35:37;9.67;;;6.30;;
1390;SDS011;690;51.454;7.194;2024-01-30T08:38:04;8.30;;;6.07;;
1390;SDS011;690;51.454;7.194;2024-01-30T08:40:32;10.10;;;5.93;;
1390;SDS011;690;51.454;7.194;2024-01-30T08:43:00;7.80;;;6.50;;
1390;SDS011;690;51.454;7.194;2024-01-30T08:45:26;8.23;;;5.10;;
1390;SDS011;690;51.454;7.194;2024-01-30T08:47:53;7.33;;;5.20;;
1390;SDS011;690;51.454;7.194;2024-01-30T08:50:20;8.70;;;5.90;;
1390;SDS011;690;51.454;7.194;2024-01-30T08:52:47;8.67;;;6.67;;
1390;SDS011;690;51.454;7.194;2024-01-30T08:55:14;5.80;;;4.57;;
1390;SDS011;690;51.454;7.194;2024-01-30T08:57:42;8.80;;;6.10;;
1390;SDS011;690;51.454;7.194;2024-01-30T09:00:10;6.90;;;4.90;;
1390;SDS011;690;51.454;7.194;2024-01-30T09:02:37;8.93;;;6.57;;
1390;SDS011;690;51.454;7.194;2024-01-30T09:05:04;7.13;;;5.97;;
1390;SDS011;690;51.454;7.194;2024-01-30T09:07:32;9.70;;;5.40;;
1390;SDS011;690;51.454;7.194;2024-01-30T09:09:58;10.03;;;5.70;;
1390;SDS011;690;51.454;7.194;2024-01-30T09:12:25;10.80;;;5.90;;
1390;SDS011;690;51.454;7.194;2024-01-30T09:14:54;10.33;;;6.20;;
1390;SDS011;690;51.454;7.194;2024-01-30T09:17:21;6.63;;;5.00;;
1390;SDS011;690;51.454;7.194;2024-01-30T09:19:47;5.70;;;5.10;;
1390;SDS011;690;51.454;7.194;2024-01-30T09:22:14;9.33;;;5.87;;
1390;SDS011;690;51.454;7.194;2024-01-30T09:24:41;7.30;;;4.60;;
1390;SDS011;690;51.454;7.194;2024-01-30T09:27:08;6.30;;;4.23;;
1390;SDS011;690;51.454;7.194;2024-01-30T09:29:35;5.97;;;4.90;;
1390;SDS011;690;51.454;7.194;2024-01-30T09:32:04;13.93;;;5.83;;
1390;SDS011;690;51.454;7.194;2024-01-30T09:34:32;5.20;;;4.60;;
1390;SDS011;690;51.454;7.194;2024-01-30T09:36:58;6.07;;;4.40;;
1390;SDS011;690;51.454;7.194;2024-01-30T09:39:25;6.70;;;4.40;;
1390;SDS011;690;51.454;7.194;2024-01-30T09:41:58;9.83;;;5.07;;
1390;SDS011;690;51.454;7.194;2024-01-30T09:44:29;9.23;;;5.00;;
1390;SDS011;690;51.454;7.194;2024-01-30T09:46:56;8.40;;;4.90;;
1390;SDS011;690;51.454;7.194;2024-01-30T09:49:30;9.30;;;5.60;;
1390;SDS011;690;51.454;7.194;2024-01-30T09:51:59;7.70;;;5.30;;
1390;SDS011;690;51.454;7.194;2024-01-30T09:54:27;8.50;;;5.33;;
1390;SDS011;690;51.454;7.194;2024-01-30T09:56:55;5.83;;;5.20;;
1390;SDS011;690;51.454;7.194;2024-01-30T09:59:22;10.70;;;4.40;;
1390;SDS011;690;51.454;7.194;2024-01-30T10:01:49;8.20;;;5.00;;
1390;SDS011;690;51.454;7.194;2024-01-30T10:04:17;7.30;;;4.73;;
1390;SDS011;690;51.454;7.194;2024-01-30T10:06:45;6.97;;;4.80;;
1390;SDS011;690;51.454;7.194;2024-01-30T10:09:13;7.67;;;5.00;;
1390;SDS011;690;51.454;7.194;2024-01-30T10:11:40;5.00;;;3.83;;
1390;SDS011;690;51.454;7.194;2024-01-30T10:14:07;9.13;;;5.07;;
1390;SDS011;690;51.454;7.194;2024-01-30T10:16:34;6.83;;;4.83;;
1390;SDS011;690;51.454;7.194;2024-01-30T10:19:01;7.63;;;4.80;;
1390;SDS011;690;51.454;7.194;2024-01-30T10:21:29;9.60;;;4.60;;
1390;SDS011;690;51.454;7.194;2024-01-30T10:23:58;6.07;;;4.33;;
1390;SDS011;690;51.454;7.194;2024-01-30T10:26:25;5.63;;;4.83;;
1390;SDS011;690;51.454;7.194;2024-01-30T10:28:54;6.53;;;4.20;;
1390;SDS011;690;51.454;7.194;2024-01-30T10:31:21;10.70;;;5.00;;
1390;SDS011;690;51.454;7.194;2024-01-30T10:33:49;6.57;;;4.40;;
1390;SDS011;690;51.454;7.194;2024-01-30T10:36:16;12.23;;;5.37;;
1390;SDS011;690;51.454;7.194;2024-01-30T10:38:44;8.30;;;4.90;;
1390;SDS011;690;51.454;7.194;2024-01-30T10:41:14;7.13;;;5.07;;
1390;SDS011;690;51.454;7.194;2024-01-30T10:43:53;6.70;;;5.00;;
1390;SDS011;690;51.454;7.194;2024-01-30T10:46:30;7.43;;;4.63;;
1390;SDS011;690;51.454;7.194;2024-01-30T10:48:59;6.80;;;4.63;;
1390;SDS011;690;51.454;7.194;2024-01-30T10:51:27;8.80;;;5.10;;
1390;SDS011;690;51.454;7.194;2024-01-30T10:53:55;8.03;;;5.10;;
1390;SDS011;690;51.454;7.194;2024-01-30T10:56:24;9.20;;;4.60;;
1390;SDS011;690;51.454;7.194;2024-01-30T10:58:52;6.80;;;4.77;;
1390;SDS011;690;51.454;7.194;2024-01-30T11:01:21;8.60;;;5.20;;
1390;SDS011;690;51.454;7.194;2024-01-30T11:03:49;6.30;;;5.40;;
1390;SDS011;690;51.454;7.194;2024-01-30T11:06:17;8.60;;;5.53;;
1390;SDS011;690;51.454;7.194;2024-01-30T11:08:44;6.90;;;4.57;;
1390;SDS011;690;51.454;7.194;2024-01-30T11:11:11;6.93;;;5.70;;
1390;SDS011;690;51.454;7.194;2024-01-30T11:13:39;10.50;;;5.43;;
1390;SDS011;690;51.454;7.194;2024-01-30T11:16:08;8.20;;;5.03;;
1390;SDS011;690;51.454;7.194;2024-01-30T11:18:38;12.53;;;5.33;;
1390;SDS011;690;51.454;7.194;2024-01-30T11:21:05;6.70;;;5.10;;
1390;SDS011;690;51.454;7.194;2024-01-30T11:23:33;7.97;;;5.40;;
1390;SDS011;690;51.454;7.194;2024-01-30T11:26:01;7.23;;;5.47;;
1390;SDS011;690;51.454;7.194;2024-01-30T11:28:31;9.00;;;4.80;;
1390;SDS011;690;51.454;7.194;2024-01-30T11:31:05;11.77;;;5.37;;
1390;SDS011;690;51.454;7.194;2024-01-30T11:33:33;6.63;;;5.17;;
1390;SDS011;690;51.454;7.194;2024-01-30T11:36:00;7.57;;;4.97;;
1390;SDS011;690;51.454;7.194;2024-01-30T11:38:28;8.30;;;5.23;;
1390;SDS011;690;51.454;7.194;2024-01-30T11:40:55;5.83;;;5.23;;
1390;SDS011;690;51.454;7.194;2024-01-30T11:43:23;8.67;;;5.80;;
1390;SDS011;690;51.454;7.194;2024-01-30T11:45:50;8.70;;;5.67;;
1390;SDS011;690;51.454;7.194;2024-01-30T11:48:18;10.77;;;5.53;;
1390;SDS011;690;51.454;7.194;2024-01-30T11:50:46;7.97;;;5.40;;
1390;SDS011;690;51.454;7.194;2024-01-30T11:53:13;12.13;;;5.50;;
1390;SDS011;690;51.454;7.194;2024-01-30T11:55:40;8.10;;;5.47;;
1390;SDS011;690;51.454;7.194;2024-01-30T11:58:08;9.90;;;5.30;;
1390;SDS011;690;51.454;7.194;2024-01-30T12:00:35;9.50;;;6.27;;
1390;SDS011;690;51.454;7.194;2024-01-30T12:03:02;8.10;;;5.10;;
1390;SDS011;690;51.454;7.194;2024-01-30T12:05:32;7.33;;;5.93;;
1390;SDS011;690;51.454;7.194;2024-01-30T12:08:00;10.53;;;6.43;;
1390;SDS011;690;51.454;7.194;2024-01-30T12:10:27;10.67;;;5.07;;
1390;SDS011;690;51.454;7.194;2024-01-30T12:12:54;9.50;;;6.67;;
1390;SDS011;690;51.454;7.194;2024-01-30T12:15:21;11.30;;;5.70;;
1390;SDS011;690;51.454;7.194;2024-01-30T12:17:49;10.20;;;7.00;;
1390;SDS011;690;51.454;7.194;2024-01-30T12:20:18;13.97;;;6.47;;
1390;SDS011;690;51.454;7.194;2024-01-30T12:22:48;6.80;;;5.40;;
1390;SDS011;690;51.454;7.194;2024-01-30T12:25:15;13.40;;;7.03;;
1390;SDS011;690;51.454;7.194;2024-01-30T12:27:44;6.73;;;5.33;;
1390;SDS011;690;51.454;7.194;2024-01-30T12:30:12;11.27;;;5.33;;
1390;SDS011;690;51.454;7.194;2024-01-30T12:32:40;9.90;;;5.93;;
1390;SDS011;690;51.454;7.194;2024-01-30T12:35:09;7.40;;;6.00;;
1390;SDS011;690;51.454;7.194;2024-01-30T12:37:36;8.60;;;5.90;;
1390;SDS011;690;51.454;7.194;2024-01-30T12:40:05;13.23;;;6.33;;
1390;SDS011;690;51.454;7.194;2024-01-30T12:42:34;18.47;;;7.43;;
1390;SDS011;690;51.454;7.194;2024-01-30T12:45:02;10.03;;;6.13;;
1390;SDS011;690;51.454;7.194;2024-01-30T12:47:29;14.23;;;6.20;;
1390;SDS011;690;51.454;7.194;2024-01-30T12:49:56;10.03;;;5.87;;
1390;SDS011;690;51.454;7.194;2024-01-30T12:52:24;9.60;;;6.30;;
1390;SDS011;690;51.454;7.194;2024-01-30T12:54:51;8.30;;;5.83;;
1390;SDS011;690;51.454;7.194;2024-01-30T12:57:19;12.77;;;5.97;;
1390;SDS011;690;51.454;7.194;2024-01-30T12:59:46;8.20;;;6.10;;
1390;SDS011;690;51.454;7.194;2024-01-30T13:02:13;13.67;;;6.57;;
1390;SDS011;690;51.454;7.194;2024-01-30T13:04:41;14.87;;;6.63;;
1390;SDS011;690;51.454;7.194;2024-01-30T13:07:09;11.67;;;6.03;;
1390;SDS011;690;51.454;7.194;2024-01-30T13:09:36;10.07;;;6.53;;
1390;SDS011;690;51.454;7.194;2024-01-30T13:12:03;12.40;;;6.93;;
1390;SDS011;690;51.454;7.194;2024-01-30T13:14:32;7.97;;;6.00;;
1390;SDS011;690;51.454;7.194;2024-01-30T13:16:59;9.47;;;6.00;;
1390;SDS011;690;51.454;7.194;2024-01-30T13:19:26;16.30;;;8.27;;
1390;SDS011;690;51.454;7.194;2024-01-30T13:21:53;16.20;;;6.87;;
1390;SDS011;690;51.454;7.194;2024-01-30T13:24:20;12.17;;;7.17;;
1390;SDS011;690;51.454;7.194;2024-01-30T13:26:47;12.23;;;6.70;;
1390;SDS011;690;51.454;7.194;2024-01-30T13:29:14;11.97;;;7.50;;
1390;SDS011;690;51.454;7.194;2024-01-30T13:31:43;10.97;;;6.73;;
1390;SDS011;690;51.454;7.194;2024-01-30T13:34:11;7.03;;;6.33;;
1390;SDS011;690;51.454;7.194;2024-01-30T13:36:38;10.93;;;7.47;;
1390;SDS011;690;51.454;7.194;2024-01-30T13:39:06;11.03;;;6.73;;
1390;SDS011;690;51.454;7.194;2024-01-30T13:41:34;12.63;;;7.57;;
1390;SDS011;690;51.454;7.194;2024-01-30T13:44:01;10.73;;;6.87;;
1390;SDS011;690;51.454;7.194;2024-01-30T13:46:28;7.90;;;6.50;;
1390;SDS011;690;51.454;7.194;2024-01-30T13:48:56;9.40;;;6.63;;
1390;SDS011;690;51.454;7.194;2024-01-30T13:51:24;10.93;;;6.80;;
1390;SDS011;690;51.454;7.194;2024-01-30T13:53:51;10.57;;;7.27;;
1390;SDS011;690;51.454;7.194;2024-01-30T13:56:18;12.03;;;7.70;;
1390;SDS011;690;51.454;7.194;2024-01-30T13:58:46;12.23;;;6.87;;
1390;SDS011;690;51.454;7.194;2024-01-30T14:01:15;10.50;;;7.20;;
1390;SDS011;690;51.454;7.194;2024-01-30T14:03:42;15.83;;;7.93;;
1390;SDS011;690;51.454;7.194;2024-01-30T14:06:10;12.93;;;8.23;;
1390;SDS011;690;51.454;7.194;2024-01-30T14:08:37;10.77;;;7.47;;
1390;SDS011;690;51.454;7.194;2024-01-30T14:11:04;11.00;;;7.63;;
1390;SDS011;690;51.454;7.194;2024-01-30T14:13:32;17.47;;;7.27;;
1390;SDS011;690;51.454;7.194;2024-01-30T14:15:59;13.90;;;7.80;;
1390;SDS011;690;51.454;7.194;2024-01-30T14:18:26;13.10;;;8.10;;
1390;SDS011;690;51.454;7.194;2024-01-30T14:20:53;13.70;;;6.60;;
1390;SDS011;690;51.454;7.194;2024-01-30T14:23:22;10.63;;;9.23;;
1390;SDS011;690;51.454;7.194;2024-01-30T14:25:49;13.63;;;7.43;;
1390;SDS011;690;51.454;7.194;2024-01-30T14:28:17;12.10;;;7.60;;
1390;SDS011;690;51.454;7.194;2024-01-30T14:30:44;10.37;;;7.10;;
1390;SDS011;690;51.454;7.194;2024-01-30T14:33:11;12.03;;;6.93;;
1390;SDS011;690;51.454;7.194;2024-01-30T14:35:38;12.47;;;7.50;;
1390;SDS011;690;51.454;7.194;2024-01-30T14:38:05;10.17;;;6.60;;
1390;SDS011;690;51.454;7.194;2024-01-30T14:40:34;9.23;;;6.83;;
1390;SDS011;690;51.454;7.194;2024-01-30T14:43:01;12.80;;;6.97;;
1390;SDS011;690;51.454;7.194;2024-01-30T14:45:28;13.30;;;7.30;;
1390;SDS011;690;51.454;7.194;2024-01-30T14:47:56;13.17;;;7.70;;
1390;SDS011;690;51.454;7.194;2024-01-30T14:50:25;15.63;;;8.70;;
1390;SDS011;690;51.454;7.194;2024-01-30T14:52:53;8.97;;;7.00;;
1390;SDS011;690;51.454;7.194;2024-01-30T14:55:20;9.40;;;6.70;;
1390;SDS011;690;51.454;7.194;2024-01-30T14:57:48;8.97;;;6.97;;
1390;SDS011;690;51.454;7.194;2024-01-30T15:00:16;16.67;;;9.77;;
1390;SDS011;690;51.454;7.194;2024-01-30T15:02:43;9.80;;;7.27;;
1390;SDS011;690;51.454;7.194;2024-01-30T15:05:11;7.47;;;6.40;;
1390;SDS011;690;51.454;7.194;2024-01-30T15:07:39;10.53;;;8.40;;
1390;SDS011;690;51.454;7.194;2024-01-30T15:10:06;12.80;;;7.70;;
1390;SDS011;690;51.454;7.194;2024-01-30T15:12:34;10.83;;;7.70;;
1390;SDS011;690;51.454;7.194;2024-01-30T15:15:03;13.03;;;7.60;;
1390;SDS011;690;51.454;7.194;2024-01-30T15:17:31;10.53;;;7.87;;
1390;SDS011;690;51.454;7.194;2024-01-30T15:19:58;10.50;;;7.00;;
1390;SDS011;690;51.454;7.194;2024-01-30T15:22:25;9.93;;;7.27;;
1390;SDS011;690;51.454;7.194;2024-01-30T15:24:52;10.00;;;6.67;;
1390;SDS011;690;51.454;7.194;2024-01-30T15:27:19;10.60;;;7.20;;